Time;durP1;ratioP1;P1;durP2;ratioP2;P2;SDS_P1;SDS_P2;PMS_P1;PMS_P2;Temp;Humidity;BMP_temperature;BMP_pressure;BME280_temperature;BME280_humidity;BME280_pressure;Samples;Min_cycle;Max_cycle;Signal;HPM_P1;HPM_P2
2021/07/24 00:01:21;;;;;;;15.80;10.13;;;;;;;;;;5069278;28;20481;-72
2021/07/24 00:03:47;;;;;;;12.40;10.70;;;;;;;;;;5069534;28;20445;-73
2021/07/24 00:06:13;;;;;;;12.93;10.00;;;;;;;;;;5069802;28;20439;-72
2021/07/24 00:08:39;;;;;;;12.90;9.83;;;;;;;;;;5069291;28;20580;-73
2021/07/24 00:11:12;;;;;;;12.83;9.77;;;;;;;;;;5069394;28;20421;-72
2021/07/24 00:13:39;;;;;;;14.43;10.03;;;;;;;;;;5068012;28;20535;-71
2021/07/24 00:16:05;;;;;;;15.53;10.20;;;;;;;;;;5069326;28;20481;-71
2021/07/24 00:18:34;;;;;;;15.43;9.80;;;;;;;;;;5069113;28;21209;-70
2021/07/24 00:21:00;;;;;;;17.30;11.80;;;;;;;;;;5069235;28;20474;-72
2021/07/24 00:23:27;;;;;;;12.40;9.53;;;;;;;;;;5069312;28;20431;-72
2021/07/24 00:25:53;;;;;;;13.07;10.10;;;;;;;;;;5069113;28;20407;-72
2021/07/24 00:28:18;;;;;;;15.03;10.50;;;;;;;;;;5068851;28;20456;-71
2021/07/24 00:30:44;;;;;;;12.57;9.80;;;;;;;;;;5068348;28;20833;-70
2021/07/24 00:33:10;;;;;;;15.33;10.70;;;;;;;;;;5069149;28;20522;-71
2021/07/24 00:35:38;;;;;;;15.97;11.03;;;;;;;;;;5069190;28;20480;-71
2021/07/24 00:38:04;;;;;;;11.43;8.60;;;;;;;;;;5068829;28;20477;-72
2021/07/24 00:40:31;;;;;;;15.60;10.97;;;;;;;;;;5069116;28;20544;-72
2021/07/24 00:42:58;;;;;;;15.73;10.53;;;;;;;;;;5069031;28;20443;-70
2021/07/24 00:45:25;;;;;;;15.50;10.27;;;;;;;;;;5069403;28;20453;-72
2021/07/24 00:47:55;;;;;;;13.27;10.20;;;;;;;;;;5067977;28;20814;-70
2021/07/24 00:50:21;;;;;;;15.53;10.30;;;;;;;;;;5069261;28;20430;-71
2021/07/24 00:52:48;;;;;;;15.80;9.53;;;;;;;;;;5069117;28;21011;-69
2021/07/24 00:55:15;;;;;;;12.70;9.70;;;;;;;;;;5069214;28;20445;-71
2021/07/24 00:57:41;;;;;;;13.40;9.87;;;;;;;;;;5068702;28;20443;-72
2021/07/24 01:00:08;;;;;;;14.03;10.60;;;;;;;;;;5071433;28;20428;-71
2021/07/24 01:02:34;;;;;;;14.43;9.83;;;;;;;;;;5072862;28;20437;-72
2021/07/24 01:05:01;;;;;;;14.80;10.60;;;;;;;;;;5072957;28;20437;-70
2021/07/24 01:07:27;;;;;;;14.93;10.07;;;;;;;;;;5072991;28;20415;-71
2021/07/24 01:09:54;;;;;;;15.00;10.83;;;;;;;;;;5072088;28;20451;-71
2021/07/24 01:12:20;;;;;;;12.40;9.83;;;;;;;;;;5071088;28;21060;-71
2021/07/24 01:14:46;;;;;;;13.77;10.37;;;;;;;;;;5071244;28;20799;-72
2021/07/24 01:17:12;;;;;;;12.37;9.47;;;;;;;;;;5072134;28;20423;-69
2021/07/24 01:19:38;;;;;;;15.40;11.07;;;;;;;;;;5072832;28;20425;-71
2021/07/24 01:22:04;;;;;;;14.67;10.37;;;;;;;;;;5072218;28;20496;-71
2021/07/24 01:24:30;;;;;;;16.50;9.30;;;;;;;;;;5072480;28;20410;-71
2021/07/24 01:26:56;;;;;;;13.13;10.23;;;;;;;;;;5072003;28;20910;-71
2021/07/24 01:29:22;;;;;;;16.10;10.70;;;;;;;;;;5072288;28;20907;-71
2021/07/24 01:31:48;;;;;;;13.70;9.70;;;;;;;;;;5072259;28;20441;-72
2021/07/24 01:34:15;;;;;;;14.60;10.30;;;;;;;;;;5072364;28;20434;-72
2021/07/24 01:36:41;;;;;;;13.97;10.60;;;;;;;;;;5072164;28;20411;-71
2021/07/24 01:39:09;;;;;;;16.00;11.03;;;;;;;;;;5072486;28;20502;-73
2021/07/24 01:41:35;;;;;;;14.53;10.70;;;;;;;;;;5074625;28;20461;-71
2021/07/24 01:44:01;;;;;;;13.63;10.30;;;;;;;;;;5076151;28;20456;-70
2021/07/24 01:46:27;;;;;;;13.15;10.25;;;;;;;;;;5069514;28;20813;-71
2021/07/24 01:54:34;;;;;;;12.97;10.07;;;;;;;;;;5076063;28;20414;-72
2021/07/24 01:57:05;;;;;;;13.90;10.60;;;;;;;;;;5075223;28;20450;-72
2021/07/24 01:59:44;;;;;;;14.40;10.47;;;;;;;;;;5075771;28;20449;-72
2021/07/24 02:02:11;;;;;;;13.83;10.57;;;;;;;;;;5075323;28;20985;-70
2021/07/24 02:04:40;;;;;;;16.40;11.07;;;;;;;;;;5075602;28;20974;-69
2021/07/24 02:07:09;;;;;;;16.50;11.67;;;;;;;;;;5075831;28;20403;-71
2021/07/24 02:09:36;;;;;;;15.10;9.67;;;;;;;;;;5075676;28;20434;-72
2021/07/24 02:12:02;;;;;;;15.63;10.90;;;;;;;;;;5075464;28;20470;-72
2021/07/24 02:14:33;;;;;;;17.20;10.47;;;;;;;;;;5075370;28;20886;-72
2021/07/24 02:16:59;;;;;;;18.20;12.33;;;;;;;;;;5075058;28;20433;-71
2021/07/24 02:19:25;;;;;;;14.03;10.23;;;;;;;;;;5075512;28;20419;-69
2021/07/24 02:21:51;;;;;;;14.20;11.23;;;;;;;;;;5075538;28;20530;-70
2021/07/24 02:24:17;;;;;;;15.40;11.13;;;;;;;;;;5075196;28;20781;-72
2021/07/24 02:26:44;;;;;;;14.83;10.80;;;;;;;;;;5075091;28;20471;-71
2021/07/24 02:29:10;;;;;;;15.60;11.02;;;;;;;;;;5075034;28;20853;-70
2021/07/24 02:31:36;;;;;;;15.48;10.95;;;;;;;;;;5075188;28;20180;-73
2021/07/24 02:34:02;;;;;;;15.00;10.30;;;;;;;;;;5075248;28;20184;-71
2021/07/24 02:36:28;;;;;;;14.00;11.20;;;;;;;;;;5075206;28;20438;-71
2021/07/24 02:38:54;;;;;;;13.57;10.57;;;;;;;;;;5074768;28;20447;-72
2021/07/24 02:41:20;;;;;;;14.10;10.40;;;;;;;;;;5074906;28;20822;-72
2021/07/24 02:43:47;;;;;;;14.47;11.20;;;;;;;;;;5074726;28;20434;-71
2021/07/24 02:46:19;;;;;;;12.53;10.10;;;;;;;;;;5073979;28;20437;-73
2021/07/24 02:48:46;;;;;;;13.27;10.87;;;;;;;;;;5074393;28;20425;-71
2021/07/24 02:51:12;;;;;;;17.70;11.47;;;;;;;;;;5074865;28;20966;-72
2021/07/24 02:53:38;;;;;;;15.90;11.43;;;;;;;;;;5073929;28;20430;-72
2021/07/24 02:56:04;;;;;;;12.50;9.27;;;;;;;;;;5074679;28;20421;-71
2021/07/24 02:58:30;;;;;;;15.37;10.87;;;;;;;;;;5074247;28;20438;-71
2021/07/24 03:00:56;;;;;;;15.37;11.43;;;;;;;;;;5074488;28;20490;-71
2021/07/24 03:03:22;;;;;;;11.90;9.77;;;;;;;;;;5074418;28;20422;-71
2021/07/24 03:05:49;;;;;;;13.30;9.57;;;;;;;;;;5074464;28;20840;-70
2021/07/24 03:08:16;;;;;;;11.37;8.90;;;;;;;;;;5074693;28;20417;-71
2021/07/24 03:10:42;;;;;;;12.30;10.23;;;;;;;;;;5074379;28;20408;-72
2021/07/24 03:13:08;;;;;;;10.23;8.77;;;;;;;;;;5074594;28;20440;-71
2021/07/24 03:15:34;;;;;;;9.83;8.67;;;;;;;;;;5074587;28;20408;-72
2021/07/24 03:18:00;;;;;;;9.37;8.37;;;;;;;;;;5074114;28;20412;-70
2021/07/24 03:20:26;;;;;;;11.57;9.43;;;;;;;;;;5074403;28;20458;-71
2021/07/24 03:22:53;;;;;;;11.00;8.97;;;;;;;;;;5074164;28;20430;-70
2021/07/24 03:25:20;;;;;;;10.17;8.50;;;;;;;;;;5079777;28;20411;-72
2021/07/24 03:27:46;;;;;;;10.50;8.97;;;;;;;;;;5073668;28;20537;-72
2021/07/24 03:30:12;;;;;;;12.37;8.50;;;;;;;;;;5074149;28;20839;-71
2021/07/24 03:32:39;;;;;;;12.00;8.90;;;;;;;;;;5081427;28;20438;-71
2021/07/24 03:35:05;;;;;;;13.70;9.10;;;;;;;;;;5080007;28;20488;-73
2021/07/24 03:37:31;;;;;;;10.27;8.40;;;;;;;;;;5081111;28;20442;-71
2021/07/24 03:39:57;;;;;;;9.70;8.70;;;;;;;;;;5079667;28;20417;-70
2021/07/24 03:42:23;;;;;;;11.30;8.40;;;;;;;;;;5074463;28;20467;-71
2021/07/24 03:44:49;;;;;;;11.50;8.83;;;;;;;;;;5079459;28;20410;-72
2021/07/24 03:47:15;;;;;;;10.60;8.07;;;;;;;;;;5078434;28;20425;-70
2021/07/24 03:49:41;;;;;;;12.03;9.00;;;;;;;;;;5073543;28;20438;-70
2021/07/24 03:52:07;;;;;;;13.13;10.27;;;;;;;;;;5073558;28;20974;-71
2021/07/24 03:54:33;;;;;;;9.80;8.40;;;;;;;;;;5073316;28;20741;-72
2021/07/24 03:56:59;;;;;;;12.00;8.70;;;;;;;;;;5075347;28;20424;-71
2021/07/24 03:59:25;;;;;;;12.57;10.03;;;;;;;;;;5079285;28;20418;-71
2021/07/24 04:01:53;;;;;;;11.70;8.63;;;;;;;;;;5066238;28;20461;-69
2021/07/24 04:04:20;;;;;;;11.47;10.03;;;;;;;;;;5072297;28;20407;-72
2021/07/24 04:06:47;;;;;;;11.97;9.30;;;;;;;;;;5073466;28;20497;-71
2021/07/24 04:09:13;;;;;;;13.80;10.00;;;;;;;;;;5073104;28;20468;-71
2021/07/24 04:11:39;;;;;;;10.03;7.90;;;;;;;;;;5073543;28;20411;-72
2021/07/24 04:14:05;;;;;;;11.73;9.40;;;;;;;;;;5073985;28;20855;-70
2021/07/24 04:16:35;;;;;;;12.60;9.30;;;;;;;;;;5088170;28;20499;-71
2021/07/24 04:19:01;;;;;;;11.37;8.47;;;;;;;;;;5075397;28;20415;-72
2021/07/24 04:21:28;;;;;;;11.03;8.97;;;;;;;;;;5073151;28;20495;-71
2021/07/24 04:23:54;;;;;;;11.37;9.40;;;;;;;;;;5073714;28;20426;-70
2021/07/24 04:26:21;;;;;;;12.57;9.43;;;;;;;;;;5073314;28;20759;-70
2021/07/24 04:28:47;;;;;;;10.73;8.77;;;;;;;;;;5077316;28;20415;-70
2021/07/24 04:31:14;;;;;;;9.60;7.80;;;;;;;;;;5073643;28;20918;-70
2021/07/24 04:33:40;;;;;;;11.53;9.17;;;;;;;;;;5074238;28;20437;-73
2021/07/24 04:36:06;;;;;;;12.07;9.17;;;;;;;;;;5073784;28;20409;-72
2021/07/24 04:38:32;;;;;;;11.33;9.10;;;;;;;;;;5073289;28;20421;-70
2021/07/24 04:40:58;;;;;;;9.97;7.70;;;;;;;;;;5071850;28;20500;-71
2021/07/24 04:43:24;;;;;;;13.00;9.40;;;;;;;;;;5073189;28;20464;-70
2021/07/24 04:45:50;;;;;;;10.63;8.57;;;;;;;;;;5072232;28;20763;-70
2021/07/24 04:48:16;;;;;;;14.30;8.03;;;;;;;;;;5073659;28;20408;-70
2021/07/24 04:50:42;;;;;;;10.20;8.57;;;;;;;;;;5073789;28;20477;-69
2021/07/24 04:53:09;;;;;;;10.33;7.80;;;;;;;;;;5073400;28;20489;-69
2021/07/24 04:55:39;;;;;;;8.70;7.53;;;;;;;;;;5073081;28;20419;-71
2021/07/24 04:58:06;;;;;;;10.23;7.87;;;;;;;;;;5072497;28;20413;-71
2021/07/24 05:00:32;;;;;;;10.87;9.87;;;;;;;;;;5073401;28;20812;-70
2021/07/24 05:02:58;;;;;;;9.90;8.60;;;;;;;;;;5072799;28;20463;-71
2021/07/24 05:05:24;;;;;;;10.67;8.30;;;;;;;;;;5074531;28;20456;-71
2021/07/24 05:07:50;;;;;;;8.60;7.70;;;;;;;;;;5080175;28;20474;-69
2021/07/24 05:10:16;;;;;;;9.10;8.13;;;;;;;;;;5079055;28;20415;-70
2021/07/24 05:12:42;;;;;;;11.33;8.30;;;;;;;;;;5079738;28;20437;-69
2021/07/24 05:15:08;;;;;;;12.73;8.97;;;;;;;;;;5075993;28;20417;-69
2021/07/24 05:17:38;;;;;;;9.67;7.37;;;;;;;;;;5076940;28;20414;-70
2021/07/24 05:20:05;;;;;;;9.93;8.10;;;;;;;;;;5076136;28;20408;-69
2021/07/24 05:22:31;;;;;;;12.70;9.03;;;;;;;;;;5076830;28;20432;-72
2021/07/24 05:24:57;;;;;;;9.73;8.60;;;;;;;;;;5076355;28;20431;-73
2021/07/24 05:27:23;;;;;;;8.97;8.03;;;;;;;;;;5076008;28;20448;-71
2021/07/24 05:29:49;;;;;;;10.40;8.80;;;;;;;;;;5076311;28;20901;-70
2021/07/24 05:32:15;;;;;;;13.67;10.83;;;;;;;;;;5076410;28;20434;-71
2021/07/24 05:34:41;;;;;;;8.70;7.80;;;;;;;;;;5076551;28;20496;-70
2021/07/24 05:37:07;;;;;;;10.30;8.47;;;;;;;;;;5076002;28;20409;-70
2021/07/24 05:39:33;;;;;;;8.97;7.93;;;;;;;;;;5076348;28;20767;-71
2021/07/24 05:41:59;;;;;;;10.77;8.70;;;;;;;;;;5074386;28;20974;-71
2021/07/24 05:44:25;;;;;;;11.07;9.00;;;;;;;;;;5078724;28;20413;-72
2021/07/24 05:46:50;;;;;;;8.57;7.73;;;;;;;;;;5075373;28;20436;-69
2021/07/24 05:49:16;;;;;;;10.60;8.90;;;;;;;;;;5076166;28;20410;-71
2021/07/24 05:51:43;;;;;;;10.30;9.23;;;;;;;;;;5078015;28;20445;-69
2021/07/24 05:54:15;;;;;;;8.80;7.90;;;;;;;;;;5075817;28;20463;-71
2021/07/24 05:56:41;;;;;;;10.50;9.40;;;;;;;;;;5075359;28;20417;-71
2021/07/24 05:59:07;;;;;;;8.20;7.40;;;;;;;;;;5076002;28;20763;-71
2021/07/24 06:01:33;;;;;;;8.37;7.60;;;;;;;;;;5075571;28;20451;-71
2021/07/24 06:03:59;;;;;;;10.93;8.40;;;;;;;;;;5075547;28;20414;-71
2021/07/24 06:06:25;;;;;;;10.90;8.20;;;;;;;;;;5077599;28;20428;-73
2021/07/24 06:08:51;;;;;;;10.50;8.93;;;;;;;;;;5075383;28;20406;-70
2021/07/24 06:11:17;;;;;;;9.50;8.33;;;;;;;;;;5075406;28;20417;-69
2021/07/24 06:13:43;;;;;;;8.37;7.43;;;;;;;;;;5074205;28;20507;-71
2021/07/24 06:16:09;;;;;;;8.93;8.07;;;;;;;;;;5075589;28;20421;-71
2021/07/24 06:18:36;;;;;;;10.67;9.00;;;;;;;;;;5075279;28;20450;-69
2021/07/24 06:21:02;;;;;;;8.73;7.93;;;;;;;;;;5075356;28;20466;-69
2021/07/24 06:23:28;;;;;;;9.03;8.10;;;;;;;;;;5075720;28;20787;-69
2021/07/24 06:25:54;;;;;;;10.87;7.60;;;;;;;;;;5071297;28;20408;-70
2021/07/24 06:28:21;;;;;;;9.67;8.70;;;;;;;;;;5069825;28;20398;-71
2021/07/24 06:30:47;;;;;;;9.97;7.90;;;;;;;;;;5075275;28;20463;-71
2021/07/24 06:33:13;;;;;;;8.80;7.90;;;;;;;;;;5074894;28;20810;-71
2021/07/24 06:35:39;;;;;;;9.90;8.87;;;;;;;;;;5075314;28;20422;-72
2021/07/24 06:38:06;;;;;;;8.83;7.93;;;;;;;;;;5074663;28;20923;-73
2021/07/24 06:40:32;;;;;;;9.67;8.30;;;;;;;;;;5074762;28;20458;-72
2021/07/24 06:42:58;;;;;;;11.80;8.50;;;;;;;;;;5074856;28;20999;-70
2021/07/24 06:45:24;;;;;;;10.60;8.27;;;;;;;;;;5075089;28;20407;-69
2021/07/24 06:47:50;;;;;;;8.30;7.50;;;;;;;;;;5072976;28;20427;-70
2021/07/24 06:50:16;;;;;;;9.93;6.40;;;;;;;;;;5075022;28;20417;-69
2021/07/24 06:52:43;;;;;;;8.73;7.77;;;;;;;;;;5077111;28;20442;-70
2021/07/24 06:55:09;;;;;;;8.80;7.30;;;;;;;;;;5084807;28;20464;-71
2021/07/24 06:57:35;;;;;;;7.90;7.10;;;;;;;;;;5074367;28;20493;-68
2021/07/24 07:00:01;;;;;;;7.20;6.50;;;;;;;;;;5075141;28;20398;-70
2021/07/24 07:02:27;;;;;;;7.33;6.63;;;;;;;;;;5075287;28;20458;-70
2021/07/24 07:04:53;;;;;;;8.03;7.23;;;;;;;;;;5074581;28;20902;-69
2021/07/24 07:07:20;;;;;;;7.47;6.77;;;;;;;;;;5082127;28;20496;-71
2021/07/24 07:09:46;;;;;;;8.17;7.37;;;;;;;;;;5074398;28;20433;-70
2021/07/24 07:12:12;;;;;;;8.40;6.17;;;;;;;;;;5074202;28;20438;-70
2021/07/24 07:14:38;;;;;;;7.03;6.33;;;;;;;;;;5074358;28;20415;-69
2021/07/24 07:17:04;;;;;;;8.23;6.50;;;;;;;;;;5073629;28;20437;-70
2021/07/24 07:19:30;;;;;;;6.67;6.07;;;;;;;;;;5074813;28;20498;-70
2021/07/24 07:21:56;;;;;;;7.73;6.80;;;;;;;;;;5074352;28;20505;-70
2021/07/24 07:24:22;;;;;;;7.10;6.40;;;;;;;;;;5074499;28;20408;-68
2021/07/24 07:26:48;;;;;;;7.37;6.27;;;;;;;;;;5073513;28;20410;-70
2021/07/24 07:29:14;;;;;;;8.60;7.30;;;;;;;;;;5074079;28;20403;-70
2021/07/24 07:31:40;;;;;;;7.40;6.30;;;;;;;;;;5074011;28;20442;-71
2021/07/24 07:34:06;;;;;;;7.20;6.40;;;;;;;;;;5074140;28;20959;-70
2021/07/24 07:36:33;;;;;;;6.90;6.17;;;;;;;;;;5071174;28;20756;-69
2021/07/24 07:38:59;;;;;;;6.40;5.80;;;;;;;;;;5066618;28;21076;-71
2021/07/24 07:41:25;;;;;;;6.43;5.80;;;;;;;;;;5066402;28;20454;-70
2021/07/24 07:43:51;;;;;;;6.67;6.07;;;;;;;;;;5068872;28;20416;-71
2021/07/24 07:46:17;;;;;;;9.27;5.60;;;;;;;;;;5070184;28;20767;-72
2021/07/24 07:48:43;;;;;;;6.20;5.60;;;;;;;;;;5068760;28;20414;-71
2021/07/24 07:51:09;;;;;;;6.00;5.50;;;;;;;;;;5069731;28;20471;-70
2021/07/24 07:53:36;;;;;;;7.20;5.90;;;;;;;;;;5069772;28;20951;-70
2021/07/24 07:56:02;;;;;;;9.93;6.33;;;;;;;;;;5069356;28;20427;-70
2021/07/24 07:58:29;;;;;;;8.40;6.10;;;;;;;;;;5069421;28;20438;-71
2021/07/24 08:00:55;;;;;;;6.60;5.40;;;;;;;;;;5069293;28;20509;-71
2021/07/24 08:03:24;;;;;;;6.07;5.57;;;;;;;;;;5069643;28;20459;-71
2021/07/24 08:05:53;;;;;;;7.47;6.70;;;;;;;;;;5069528;28;20520;-72
2021/07/24 08:08:19;;;;;;;8.00;7.20;;;;;;;;;;5068436;28;20505;-70
2021/07/24 08:10:46;;;;;;;20.87;18.73;;;;;;;;;;5069306;28;20420;-72
2021/07/24 08:13:18;;;;;;;7.40;6.70;;;;;;;;;;5069591;28;20894;-69
2021/07/24 08:15:45;;;;;;;6.83;6.30;;;;;;;;;;5062758;28;20489;-72
2021/07/24 08:18:11;;;;;;;9.87;8.87;;;;;;;;;;5068986;28;20548;-71
2021/07/24 08:20:40;;;;;;;6.27;5.63;;;;;;;;;;5069402;28;20507;-72
2021/07/24 08:23:06;;;;;;;6.93;5.77;;;;;;;;;;5069075;28;20439;-73
2021/07/24 08:25:32;;;;;;;7.10;5.93;;;;;;;;;;5069306;28;20410;-71
2021/07/24 08:28:02;;;;;;;5.57;5.13;;;;;;;;;;5068901;28;20497;-72
2021/07/24 08:30:28;;;;;;;6.93;5.40;;;;;;;;;;5069389;28;20500;-70
2021/07/24 08:32:54;;;;;;;6.10;5.50;;;;;;;;;;5068997;28;20430;-70
2021/07/24 08:35:20;;;;;;;5.40;4.90;;;;;;;;;;5069269;28;20421;-71
2021/07/24 08:37:46;;;;;;;6.57;5.80;;;;;;;;;;5068699;28;20407;-70
2021/07/24 08:40:12;;;;;;;6.00;5.47;;;;;;;;;;5069207;28;20418;-70
2021/07/24 08:42:42;;;;;;;5.57;5.07;;;;;;;;;;5069159;28;20486;-69
2021/07/24 08:45:08;;;;;;;6.23;5.63;;;;;;;;;;5069116;28;20434;-69
2021/07/24 08:47:34;;;;;;;5.60;4.97;;;;;;;;;;5068856;28;20465;-72
2021/07/24 08:50:01;;;;;;;5.57;5.17;;;;;;;;;;5069309;28;20521;-71
2021/07/24 08:52:28;;;;;;;6.37;5.60;;;;;;;;;;5071782;28;20999;-69
2021/07/24 08:54:54;;;;;;;6.97;6.27;;;;;;;;;;5073331;28;20421;-68
2021/07/24 08:57:24;;;;;;;7.30;6.00;;;;;;;;;;5073046;28;20415;-69
2021/07/24 08:59:51;;;;;;;7.20;5.90;;;;;;;;;;5073526;28;20484;-71
2021/07/24 09:02:20;;;;;;;7.83;5.60;;;;;;;;;;5072943;28;20473;-72
2021/07/24 09:04:48;;;;;;;11.47;9.83;;;;;;;;;;5073000;28;20434;-70
2021/07/24 09:07:14;;;;;;;6.33;5.73;;;;;;;;;;5073108;28;20453;-69
2021/07/24 09:09:41;;;;;;;6.70;6.10;;;;;;;;;;5072968;28;20421;-71
2021/07/24 09:12:07;;;;;;;5.53;5.07;;;;;;;;;;5072917;28;20986;-71
2021/07/24 09:14:33;;;;;;;7.30;6.40;;;;;;;;;;5072941;28;20414;-71
2021/07/24 09:17:01;;;;;;;5.93;5.27;;;;;;;;;;5072273;28;20425;-71
2021/07/24 09:19:30;;;;;;;6.20;5.60;;;;;;;;;;5072718;28;20446;-71
2021/07/24 09:21:56;;;;;;;6.80;6.10;;;;;;;;;;5072498;28;20508;-72
2021/07/24 09:24:23;;;;;;;5.67;5.27;;;;;;;;;;5072726;28;20411;-72
2021/07/24 09:26:50;;;;;;;5.53;5.03;;;;;;;;;;5072018;28;20914;-72
2021/07/24 09:29:17;;;;;;;6.63;5.97;;;;;;;;;;5070923;28;20446;-71
2021/07/24 09:31:44;;;;;;;5.87;5.27;;;;;;;;;;5071147;28;20414;-71
2021/07/24 09:34:10;;;;;;;6.93;5.50;;;;;;;;;;5072386;28;20437;-70
2021/07/24 09:36:37;;;;;;;5.97;5.37;;;;;;;;;;5072156;28;20457;-69
2021/07/24 09:39:08;;;;;;;5.57;4.93;;;;;;;;;;5072509;28;20414;-71
2021/07/24 09:41:34;;;;;;;7.00;6.30;;;;;;;;;;5072343;28;21001;-72
2021/07/24 09:44:00;;;;;;;6.20;5.60;;;;;;;;;;5072321;28;20775;-72
2021/07/24 09:46:27;;;;;;;6.63;6.00;;;;;;;;;;5072276;28;20475;-69
2021/07/24 09:48:54;;;;;;;13.03;9.93;;;;;;;;;;5071840;28;20415;-69
2021/07/24 09:51:33;;;;;;;6.10;5.57;;;;;;;;;;5072494;28;20448;-71
2021/07/24 09:53:59;;;;;;;5.77;5.27;;;;;;;;;;5072443;28;20755;-71
2021/07/24 09:56:45;;;;;;;5.53;5.13;;;;;;;;;;5072041;28;20448;-71
2021/07/24 09:59:16;;;;;;;7.20;5.20;;;;;;;;;;5071268;28;20418;-71
2021/07/24 10:01:43;;;;;;;5.53;5.03;;;;;;;;;;5071580;28;20497;-72
2021/07/24 10:04:11;;;;;;;5.13;4.70;;;;;;;;;;5068728;28;20430;-71
2021/07/24 10:06:38;;;;;;;5.10;4.60;;;;;;;;;;5072381;28;20969;-71
2021/07/24 10:09:04;;;;;;;5.73;5.33;;;;;;;;;;5071697;28;20441;-70
2021/07/24 10:11:31;;;;;;;5.20;4.80;;;;;;;;;;5071732;28;20448;-72
2021/07/24 10:13:57;;;;;;;5.43;4.93;;;;;;;;;;5071578;28;20510;-73
2021/07/24 10:16:24;;;;;;;5.50;5.00;;;;;;;;;;5071817;28;20468;-70
2021/07/24 10:18:51;;;;;;;5.60;5.10;;;;;;;;;;5071230;28;20419;-70
2021/07/24 10:21:19;;;;;;;13.03;10.10;;;;;;;;;;5071403;28;20501;-70
2021/07/24 10:23:46;;;;;;;5.90;5.40;;;;;;;;;;5071488;28;20438;-73
2021/07/24 10:26:23;;;;;;;5.47;4.97;;;;;;;;;;5071376;28;21124;-71
2021/07/24 10:28:53;;;;;;;6.33;4.80;;;;;;;;;;5071080;28;20406;-70
2021/07/24 10:31:34;;;;;;;5.13;4.63;;;;;;;;;;5071246;28;20513;-68
2021/07/24 10:34:04;;;;;;;4.90;4.60;;;;;;;;;;5071320;28;20529;-68
2021/07/24 10:36:38;;;;;;;5.50;5.13;;;;;;;;;;5071326;28;20450;-70
2021/07/24 10:39:05;;;;;;;5.20;4.80;;;;;;;;;;5071293;28;20421;-72
2021/07/24 10:41:31;;;;;;;5.77;5.30;;;;;;;;;;5071087;28;20472;-68
2021/07/24 10:44:01;;;;;;;7.93;5.13;;;;;;;;;;5071158;28;20966;-72
2021/07/24 10:46:45;;;;;;;4.30;4.00;;;;;;;;;;5071181;28;20410;-70
2021/07/24 10:49:23;;;;;;;6.43;6.03;;;;;;;;;;5070767;28;20801;-74
2021/07/24 10:51:53;;;;;;;5.17;4.80;;;;;;;;;;5070963;28;20487;-70
2021/07/24 10:54:19;;;;;;;4.87;4.57;;;;;;;;;;5071016;28;20437;-70
2021/07/24 10:56:45;;;;;;;5.20;4.80;;;;;;;;;;5070692;28;20414;-70
2021/07/24 10:59:15;;;;;;;5.20;4.80;;;;;;;;;;5070697;28;20535;-71
2021/07/24 11:01:45;;;;;;;6.90;5.60;;;;;;;;;;5070616;28;20594;-70
2021/07/24 11:04:29;;;;;;;5.37;5.07;;;;;;;;;;5071125;28;20429;-70
2021/07/24 11:07:16;;;;;;;5.87;5.27;;;;;;;;;;5072502;28;20891;-72
2021/07/24 11:09:46;;;;;;;5.47;5.17;;;;;;;;;;5070695;28;20828;-70
2021/07/24 11:12:16;;;;;;;5.00;4.60;;;;;;;;;;5070486;28;20484;-72
2021/07/24 11:14:49;;;;;;;5.77;5.37;;;;;;;;;;5069897;28;20438;-72
2021/07/24 11:17:15;;;;;;;5.07;4.70;;;;;;;;;;5070040;28;20437;-71
2021/07/24 11:19:41;;;;;;;5.63;5.13;;;;;;;;;;5070485;28;20526;-72
2021/07/24 11:22:11;;;;;;;6.20;5.60;;;;;;;;;;5070347;28;20470;-68
2021/07/24 11:24:38;;;;;;;5.30;5.00;;;;;;;;;;5070080;28;20765;-70
2021/07/24 11:27:04;;;;;;;5.50;5.10;;;;;;;;;;5069818;28;20410;-68
2021/07/24 11:29:30;;;;;;;6.00;5.60;;;;;;;;;;5070013;28;20501;-70
2021/07/24 11:32:00;;;;;;;7.83;7.20;;;;;;;;;;5070081;28;20441;-70
2021/07/24 11:34:26;;;;;;;4.97;4.67;;;;;;;;;;5070145;28;20414;-72
2021/07/24 11:36:52;;;;;;;7.73;7.23;;;;;;;;;;5069673;28;20484;-71
2021/07/24 11:39:31;;;;;;;6.03;5.53;;;;;;;;;;5069819;28;20418;-68
2021/07/24 11:41:57;;;;;;;6.37;5.93;;;;;;;;;;5069876;28;20555;-71
2021/07/24 11:44:27;;;;;;;8.93;8.23;;;;;;;;;;5069917;28;20457;-70
2021/07/24 11:47:00;;;;;;;6.10;5.70;;;;;;;;;;5069515;28;20430;-70
2021/07/24 11:49:26;;;;;;;7.63;7.07;;;;;;;;;;5069655;28;20441;-71
2021/07/24 11:51:53;;;;;;;6.37;5.90;;;;;;;;;;5069831;28;20434;-70
2021/07/24 11:54:29;;;;;;;6.10;5.53;;;;;;;;;;5069720;28;20512;-70
2021/07/24 11:56:55;;;;;;;14.70;13.47;;;;;;;;;;5069424;28;20767;-68
2021/07/24 11:59:21;;;;;;;6.20;5.77;;;;;;;;;;5069759;28;20418;-70
2021/07/24 12:01:47;;;;;;;5.90;5.50;;;;;;;;;;5069595;28;20505;-71
2021/07/24 12:04:16;;;;;;;7.00;6.50;;;;;;;;;;5069583;28;20438;-69
2021/07/24 12:06:48;;;;;;;5.77;5.40;;;;;;;;;;5070395;28;20418;-72
2021/07/24 12:09:16;;;;;;;6.70;6.20;;;;;;;;;;5063021;28;20469;-72
2021/07/24 12:11:47;;;;;;;6.67;6.13;;;;;;;;;;5069650;28;20443;-72
2021/07/24 12:14:13;;;;;;;6.50;6.10;;;;;;;;;;5069564;28;20476;-72
2021/07/24 12:16:40;;;;;;;6.73;6.33;;;;;;;;;;5069143;28;20414;-68
2021/07/24 12:19:17;;;;;;;6.77;6.37;;;;;;;;;;5069410;28;20414;-71
2021/07/24 12:21:43;;;;;;;7.13;6.63;;;;;;;;;;5069206;28;20466;-69
2021/07/24 12:24:09;;;;;;;8.43;7.93;;;;;;;;;;5069385;28;20418;-70
2021/07/24 12:26:35;;;;;;;7.67;7.17;;;;;;;;;;5068219;28;20998;-68
2021/07/24 12:29:11;;;;;;;7.10;6.60;;;;;;;;;;5069206;28;20975;-71
2021/07/24 12:31:43;;;;;;;8.50;7.90;;;;;;;;;;5069052;28;20459;-73
2021/07/24 12:34:19;;;;;;;7.23;6.77;;;;;;;;;;5069429;28;20442;-70
2021/07/24 12:36:49;;;;;;;6.77;6.27;;;;;;;;;;5068860;28;20893;-69
2021/07/24 12:39:20;;;;;;;8.17;7.57;;;;;;;;;;5069179;28;21157;-71
2021/07/24 12:41:56;;;;;;;8.07;7.57;;;;;;;;;;5063204;28;21069;-71
2021/07/24 12:44:22;;;;;;;7.80;7.20;;;;;;;;;;5069309;28;20469;-70
2021/07/24 12:47:08;;;;;;;7.63;7.10;;;;;;;;;;5068727;28;20451;-72
2021/07/24 12:49:35;;;;;;;7.43;6.93;;;;;;;;;;5069051;28;20824;-70
2021/07/24 12:52:21;;;;;;;9.07;8.30;;;;;;;;;;5068816;28;20443;-68
2021/07/24 12:55:00;;;;;;;8.27;7.77;;;;;;;;;;5064445;28;20462;-71
2021/07/24 12:57:26;;;;;;;12.70;8.70;;;;;;;;;;5068782;28;20855;-72
2021/07/24 12:59:52;;;;;;;9.20;8.60;;;;;;;;;;5069033;28;20421;-68
2021/07/24 13:02:19;;;;;;;9.10;8.40;;;;;;;;;;5068878;28;20565;-71
2021/07/24 13:04:51;;;;;;;9.13;8.50;;;;;;;;;;5069086;28;20478;-70
2021/07/24 13:07:17;;;;;;;9.40;8.70;;;;;;;;;;5069533;28;20860;-70
2021/07/24 13:09:43;;;;;;;10.33;9.47;;;;;;;;;;5067830;28;20457;-70
2021/07/24 13:12:09;;;;;;;9.83;9.13;;;;;;;;;;5069106;28;20449;-72
2021/07/24 13:14:35;;;;;;;10.27;9.47;;;;;;;;;;5069178;28;20468;-70
2021/07/24 13:17:01;;;;;;;9.93;9.00;;;;;;;;;;5068494;28;20479;-72
2021/07/24 13:19:27;;;;;;;10.27;9.47;;;;;;;;;;5068860;28;20450;-72
2021/07/24 13:21:53;;;;;;;10.30;9.30;;;;;;;;;;5068241;28;21047;-72
2021/07/24 13:24:20;;;;;;;9.93;9.10;;;;;;;;;;5068695;28;20422;-72
2021/07/24 13:29:15;;;;;;;9.97;8.97;;;;;;;;;;5068706;28;20425;-71
2021/07/24 13:31:42;;;;;;;10.50;9.50;;;;;;;;;;5066935;28;20418;-70
2021/07/24 13:34:09;;;;;;;9.70;8.90;;;;;;;;;;5068992;28;20414;-70
2021/07/24 13:36:36;;;;;;;9.70;8.80;;;;;;;;;;5069242;28;20687;-71
2021/07/24 13:39:02;;;;;;;10.70;9.70;;;;;;;;;;5072242;28;20424;-69
2021/07/24 13:41:28;;;;;;;9.77;8.87;;;;;;;;;;5072010;28;20560;-72
2021/07/24 13:43:54;;;;;;;9.67;8.77;;;;;;;;;;5072270;28;20469;-70
2021/07/24 13:46:20;;;;;;;9.93;9.03;;;;;;;;;;5071934;28;20828;-68
2021/07/24 13:48:46;;;;;;;9.17;8.47;;;;;;;;;;5071723;28;20903;-69
2021/07/24 13:51:12;;;;;;;10.17;9.17;;;;;;;;;;5072182;28;20444;-71
2021/07/24 13:53:41;;;;;;;10.53;9.37;;;;;;;;;;5071972;28;20484;-72
2021/07/24 13:56:07;;;;;;;10.27;9.27;;;;;;;;;;5072098;28;20415;-70
2021/07/24 13:58:33;;;;;;;10.47;9.63;;;;;;;;;;5071616;28;20418;-70
2021/07/24 14:00:59;;;;;;;10.43;9.50;;;;;;;;;;5071605;28;20497;-71
2021/07/24 14:03:25;;;;;;;9.50;8.80;;;;;;;;;;5071791;28;20458;-72
2021/07/24 14:06:03;;;;;;;10.67;9.67;;;;;;;;;;5071708;28;20434;-70
2021/07/24 14:08:32;;;;;;;9.87;8.97;;;;;;;;;;5065264;28;20410;-70
2021/07/24 14:10:58;;;;;;;10.30;9.30;;;;;;;;;;5071801;28;20465;-73
2021/07/24 14:13:25;;;;;;;11.30;10.07;;;;;;;;;;5071579;28;20447;-71
2021/07/24 14:15:51;;;;;;;10.23;9.30;;;;;;;;;;5071775;28;20426;-72
2021/07/24 14:18:21;;;;;;;9.80;9.10;;;;;;;;;;5071469;28;20495;-69
2021/07/24 14:20:47;;;;;;;10.57;9.57;;;;;;;;;;5071712;28;20466;-72
2021/07/24 14:23:13;;;;;;;9.97;9.17;;;;;;;;;;5071359;28;20430;-71
2021/07/24 14:25:41;;;;;;;11.73;10.47;;;;;;;;;;5071281;28;20860;-73
2021/07/24 14:28:07;;;;;;;9.83;9.03;;;;;;;;;;5071031;28;20423;-72
2021/07/24 14:30:33;;;;;;;11.27;10.27;;;;;;;;;;5071338;28;20465;-73
2021/07/24 14:32:59;;;;;;;11.50;10.60;;;;;;;;;;5071039;28;20470;-69
2021/07/24 14:35:25;;;;;;;9.83;9.10;;;;;;;;;;5071177;28;20449;-71
2021/07/24 14:37:50;;;;;;;10.03;9.23;;;;;;;;;;5070679;28;20411;-71
2021/07/24 14:40:17;;;;;;;11.20;10.00;;;;;;;;;;5071039;28;20421;-73
2021/07/24 14:42:43;;;;;;;11.30;10.20;;;;;;;;;;5070977;28;20509;-72